createdAt,value
2019-05-15T00:02:10.881Z,100575.81
2019-05-15T00:12:13.743Z,100567.16
2019-05-15T00:22:18.507Z,100551.95
2019-05-15T00:32:24.042Z,100544.66
2019-05-15T00:42:28.584Z,100536.45
2019-05-15T00:52:35.237Z,100516.83
2019-05-15T01:02:39.797Z,100514.38
2019-05-15T01:12:44.275Z,100491.34
2019-05-15T01:22:48.754Z,100482.67
2019-05-15T01:32:53.305Z,100477.89
2019-05-15T01:42:58.286Z,100478.36
2019-05-15T01:53:02.870Z,100466.17
2019-05-15T02:03:09.837Z,100456.65
2019-05-15T02:13:13.636Z,100442.73
2019-05-15T02:23:18.921Z,100431.44
2019-05-15T02:33:24.420Z,100426.23
2019-05-15T02:43:29.797Z,100424.58
2019-05-15T02:53:34.636Z,100414.09
2019-05-15T03:03:39.453Z,100411.48
2019-05-15T03:13:43.969Z,100406.67
2019-05-15T03:23:50.762Z,100402.34
2019-05-15T03:33:55.354Z,100403.23
2019-05-15T03:43:59.967Z,100400.57
2019-05-15T03:54:04.670Z,100407.10
2019-05-15T04:04:09.651Z,100405.34
2019-05-15T04:14:15.341Z,100399.59
2019-05-15T04:24:20.639Z,100394.31
2019-05-15T04:34:25.106Z,100380.25
2019-05-15T04:44:29.622Z,100384.56
2019-05-15T04:54:34.098Z,100378.31
2019-05-15T05:04:38.915Z,100384.31
2019-05-15T05:14:43.658Z,100384.31
2019-05-15T05:24:48.276Z,100376.33
2019-05-15T05:34:53.010Z,100373.70
2019-05-15T05:44:58.236Z,100356.98
2019-05-15T05:55:02.874Z,100357.34
2019-05-15T06:05:08.007Z,100359.02
2019-05-15T06:15:13.695Z,100357.61
2019-05-15T06:25:19.963Z,100366.19
2019-05-15T06:35:24.893Z,100359.50
2019-05-15T06:45:29.494Z,100348.66
2019-05-15T07:06:38.988Z,100362.01
2019-05-15T07:16:44.069Z,100346.38
2019-05-15T07:26:49.159Z,100345.22
2019-05-15T07:36:54.584Z,100342.03
2019-05-15T07:46:59.516Z,100329.86
2019-05-15T07:57:04.883Z,100326.94
2019-05-15T08:07:10.598Z,100315.08
2019-05-15T08:17:19.040Z,100315.52
2019-05-15T08:27:23.735Z,100313.09
2019-05-15T08:37:29.340Z,100314.47
2019-05-15T08:47:34.705Z,100312.67
2019-05-15T08:57:40.187Z,100315.66
2019-05-15T09:07:45.643Z,100312.03
2019-05-15T09:17:50.935Z,100305.53
2019-05-15T09:27:57.966Z,100309.66
2019-05-15T09:38:03.206Z,100309.53
2019-05-15T09:48:11.073Z,100300.99
2019-05-15T09:58:19.664Z,100282.44
2019-05-15T10:08:22.953Z,100277.11
2019-05-15T10:18:28.260Z,100268.70
2019-05-15T10:28:33.996Z,100261.23
2019-05-15T10:38:39.326Z,100253.94
2019-05-15T10:48:44.337Z,100252.39
2019-05-15T10:58:50.661Z,100263.81
2019-05-15T11:08:55.027Z,100258.63
2019-05-15T11:19:00.676Z,100233.52
2019-05-15T11:29:09.413Z,100248.86
2019-05-15T11:39:12.335Z,100233.69
2019-05-15T11:49:18.302Z,100226.99
2019-05-15T11:59:22.923Z,100238.42
2019-05-15T12:09:30.482Z,100237.05
2019-05-15T12:19:35.046Z,100226.16
2019-05-15T12:29:40.697Z,100213.70
2019-05-15T12:39:45.343Z,100209.34
2019-05-15T12:59:58.121Z,100214.84
2019-05-15T13:10:02.420Z,100208.44
2019-05-15T13:20:09.116Z,100204.91
2019-05-15T13:30:15.216Z,100198.77
2019-05-15T13:40:32.833Z,100187.22
2019-05-15T13:50:28.480Z,100174.55
2019-05-15T14:00:33.004Z,100171.09
2019-05-15T14:10:38.872Z,100162.20
2019-05-15T14:20:43.502Z,100150.80
2019-05-15T14:30:48.182Z,100157.16
2019-05-15T14:40:52.647Z,100147.41
2019-05-15T14:50:58.382Z,100143.38
2019-05-15T15:01:04.755Z,100142.41
2019-05-15T15:11:09.857Z,100130.16
2019-05-15T15:21:14.302Z,100123.88
2019-05-15T15:31:19.308Z,100129.47
2019-05-15T15:41:24.873Z,100118.42
2019-05-15T15:51:29.504Z,100114.30
2019-05-15T16:01:34.043Z,100103.66
2019-05-15T16:18:02.599Z,100103.11
2019-05-15T16:28:08.875Z,100097.63
2019-05-15T16:38:13.677Z,100092.66
2019-05-15T16:48:18.801Z,100089.13
2019-05-15T16:58:24.474Z,100077.57
2019-05-15T17:08:32.061Z,100059.94
2019-05-15T17:18:37.991Z,100052.53
2019-05-15T17:36:18.457Z,100059.70
2019-05-15T17:46:24.091Z,100051.22
2019-05-15T17:56:28.683Z,100046.81
2019-05-15T18:06:33.261Z,100040.22
2019-05-15T18:16:38.274Z,100028.56
2019-05-15T18:26:42.915Z,100015.14
2019-05-15T18:36:48.519Z,100009.59
2019-05-15T18:46:53.684Z,100003.02
2019-05-15T18:56:58.529Z,99995.05
2019-05-15T19:07:03.511Z,99989.73
2019-05-15T19:17:08.511Z,100000.59
2019-05-15T19:27:13.090Z,99981.24
2019-05-15T19:37:18.378Z,99971.91
2019-05-15T19:47:23.223Z,99961.73
2019-05-15T19:57:28.128Z,99940.59
2019-05-15T20:07:32.733Z,99935.78
2019-05-15T20:17:38.636Z,99927.88
2019-05-15T20:27:44.066Z,99921.19
2019-05-15T20:37:48.663Z,99906.61
2019-05-15T20:47:53.245Z,99895.97
2019-05-15T20:57:58.593Z,99892.63
2019-05-15T21:08:03.228Z,99898.41
2019-05-15T21:18:13.930Z,99886.66
2019-05-15T21:28:13.835Z,99895.83
2019-05-15T21:38:21.299Z,99885.42
2019-05-15T21:48:24.593Z,99876.88
2019-05-15T21:58:29.306Z,99867.92
2019-05-15T22:08:34.140Z,99864.78
2019-05-15T22:18:38.929Z,99850.24
2019-05-15T22:28:43.464Z,99855.20
2019-05-15T22:38:50.366Z,99859.61
2019-05-15T22:48:55.229Z,99852.22
2019-05-15T22:58:59.834Z,99844.78
2019-05-15T23:09:06.597Z,99825.55
2019-05-15T23:19:11.241Z,99756.31
2019-05-15T23:29:15.617Z,99756.31
2019-05-15T23:39:20.221Z,99765.12
2019-05-15T23:49:24.714Z,99754.99
2019-05-15T23:59:29.152Z,99756.36
